Oscoda, MI (48750)

10:45 PM EDT on April 25, 2017 (GMT -0400)
Huron Shore - 1 mi north of Ausable Point | | Change Station

Elev 600 ft 44.36 °N, 83.34 °W | Updated 39 seconds ago

Overcast
Overcast
45.7 °F
Feels Like 43 °F
N
5.8
Wind Variable Wind from NNE

Today
High -- | Low -- °F
--% Chance of Precip.
Yesterday
High -- | Low -- °F
Precip. -- in
Pressure 29.75 in
Visibility 5.0 miles
Clouds Overcast 400 ft
Windchill 43 °F
Dew Point 45 °F
Humidity 99%
Rainfall 0.00 in
Snow Depth Not available.
6:32 AM 8:30 PM
Waning Crescent, 0% visible
METAR KOSC 260234Z AUTO 19003KT 5SM BR OVC004 09/08 A2975 RMK AO2 T00900080
Pressure 29.75 in
Visibility 5.0 miles
Clouds Overcast 400 ft
Windchill 43 °F
Dew Point 45 °F
Humidity 99%
Rainfall 0.00 in
Snow Depth Not available.
6:32 AM 8:30 PM
Waning Crescent, 0% visible
METAR KOSC 260234Z AUTO 19003KT 5SM BR OVC004 09/08 A2975 RMK AO2 T00900080

Get Severe Weather Alerts

Thanks for signing up!

Be on the lookout for a verification email in your inbox.

You'll start receiving the daily forecast at 8 AM.

×

10-Day Weather Forecast

Almanac

Astronomy

Apr. 25, 2017 Rise Set
Actual Time
Civil Twilight
Nautical Twilight
Astronomical Twilight
Moon
Length of Visible Light
Length of Day
Tomorrow will be .
, % of the Moon is Illuminated

Today's Extremes

State Highs State Lows

Community

WunderPhotos

WunderBlog® & News

Nearby

Air Quality

  Air Quality AQ Index Pollutant
Not available.

Snow Depth

Station Depth Elevation

Earthquake Activity

City Distance Mag. Time & Date
Minimum magnitude displayed is 2.5.

Coastal Water Temperatures

Place Temperature

Stations

Nearby Weather Stations

Station Location Temp. Windchill Dew Point Humidity Wind Precip. Elev Updated Type
                   

Watches & Warnings

There are currently no watches in effect.